Time;durP1;ratioP1;P1;durP2;ratioP2;P2;SDS_P1;SDS_P2;PMS_P1;PMS_P2;Temp;Humidity;BMP_temperature;BMP_pressure;BME280_temperature;BME280_humidity;BME280_pressure;Samples;Min_cycle;Max_cycle;Signal;HPM_P1;HPM_P2
2023/06/10 00:01:49;;;;;;;;;;;13.90;99.90;;;12.72;100.00;101530.13;4997764;28;20034;-78
2023/06/10 00:04:16;;;;;;;16.50;3.20;;;13.90;99.90;;;12.70;100.00;101517.03;5000516;28;19928;-78
2023/06/10 00:06:49;;;;;;;17.48;3.53;;;13.90;99.90;;;12.72;100.00;101535.44;5017850;28;20044;-78
2023/06/10 00:09:15;;;;;;;20.55;2.97;;;13.90;99.90;;;12.71;100.00;101525.78;5015108;28;20041;-78
2023/06/10 00:11:42;;;;;;;13.75;2.72;;;13.90;99.90;;;12.75;100.00;101521.25;5019390;28;20114;-78
2023/06/10 00:14:08;;;;;;;14.45;2.50;;;13.90;99.90;;;12.73;100.00;101519.50;5012058;28;20041;-79
2023/06/10 00:16:35;;;;;;;13.95;2.83;;;13.90;99.90;;;12.76;100.00;101531.72;5013540;28;20038;-78
2023/06/10 00:19:03;;;;;;;7.95;2.40;;;13.90;99.90;;;12.71;100.00;101524.00;5008762;28;20038;-78
2023/06/10 00:21:37;;;;;;;16.90;3.45;;;13.90;99.90;;;12.74;100.00;101533.59;5014170;28;20034;-78
2023/06/10 00:24:09;;;;;;;26.48;3.97;;;13.90;99.90;;;12.70;100.00;101527.59;5015094;28;20447;-78
2023/06/10 00:26:35;;;;;;;14.55;3.05;;;13.90;99.90;;;12.75;100.00;101523.91;5005184;28;20053;-78
2023/06/10 00:29:01;;;;;;;15.75;3.20;;;13.90;99.90;;;12.73;100.00;101523.94;4998969;28;20045;-78
2023/06/10 00:31:27;;;;;;;15.27;2.90;;;13.90;99.90;;;12.69;100.00;101535.56;5014352;28;20040;-78
2023/06/10 00:33:53;;;;;;;10.52;2.60;;;13.90;99.90;;;12.70;100.00;101527.59;5017807;28;20026;-78
2023/06/10 00:36:19;;;;;;;;;;;13.80;99.90;;;12.66;100.00;101527.78;5012409;28;20084;-78
2023/06/10 00:38:45;;;;;;;19.88;3.45;;;13.90;99.90;;;12.69;100.00;101532.94;4999470;28;20448;-78
2023/06/10 00:41:11;;;;;;;16.17;3.03;;;13.90;99.90;;;12.72;99.88;101540.72;4996093;28;20050;-78
2023/06/10 00:43:37;;;;;;;;;;;13.90;99.90;;;12.69;100.00;101538.22;5011029;28;20156;-79
2023/06/10 00:46:02;;;;;;;16.27;2.70;;;13.90;99.90;;;12.70;99.88;101529.38;5014233;28;19929;-78
2023/06/10 00:48:28;;;;;;;;;;;13.90;99.90;;;12.70;100.00;101538.16;5008610;28;20095;-78
2023/06/10 00:50:55;;;;;;;23.08;3.30;;;13.90;99.90;;;12.70;100.00;101530.22;4997724;28;19918;-78
2023/06/10 00:53:22;;;;;;;14.48;3.00;;;13.90;99.90;;;12.77;100.00;101527.34;5018220;28;20044;-78
2023/06/10 00:55:48;;;;;;;14.80;2.75;;;13.90;99.90;;;12.81;99.43;101524.47;5016423;28;20060;-78
2023/06/10 00:58:15;;;;;;;15.98;3.30;;;13.90;99.90;;;12.82;98.94;101534.13;4986321;28;20542;-78
2023/06/10 01:00:41;;;;;;;14.77;2.92;;;14.00;99.90;;;12.86;98.77;101534.84;4997787;28;20089;-77
2023/06/10 01:03:10;;;;;;;12.00;2.88;;;14.00;99.90;;;12.80;98.55;101527.19;4999514;28;20154;-78
2023/06/10 01:05:38;;;;;;;22.23;3.55;;;14.00;99.90;;;12.87;98.04;101536.56;4998980;28;20071;-78
2023/06/10 01:08:38;;;;;;;19.75;3.20;;;14.00;99.90;;;12.91;98.25;101539.03;5014290;28;20100;-78
2023/06/10 01:11:13;;;;;;;24.25;3.50;;;14.10;99.90;;;12.96;97.83;101538.81;4999136;28;20050;-78
2023/06/10 01:13:41;;;;;;;12.45;3.00;;;14.10;99.90;;;13.02;96.94;101540.31;5015468;28;20038;-78
2023/06/10 01:16:08;;;;;;;17.30;2.97;;;14.10;99.90;;;13.05;96.63;101543.69;5017872;28;20046;-78
2023/06/10 01:18:34;;;;;;;15.65;3.28;;;14.10;99.90;;;13.01;96.44;101544.75;5017458;28;20426;-78
2023/06/10 01:21:00;;;;;;;13.10;3.20;;;14.10;99.90;;;12.99;96.52;101541.31;5001268;28;20043;-78
2023/06/10 01:23:26;;;;;;;;;;;14.10;99.90;;;12.95;97.02;101538.88;4998990;28;20429;-78
2023/06/10 01:26:00;;;;;;;17.83;2.97;;;14.10;99.90;;;12.92;96.62;101540.72;5014297;28;20392;-78
2023/06/10 01:28:57;;;;;;;17.20;3.15;;;14.10;99.90;;;12.98;96.88;101541.38;5014978;28;20260;-78
2023/06/10 01:32:29;;;;;;;17.65;2.97;;;14.10;99.90;;;12.96;96.95;101549.41;5032089;28;20076;-78
2023/06/10 01:34:57;;;;;;;15.38;3.17;;;14.20;99.90;;;12.99;96.76;101551.91;4979464;28;20034;-76
2023/06/10 01:37:26;;;;;;;17.70;2.45;;;14.20;99.90;;;13.03;96.43;101550.00;5009208;28;21444;-76
2023/06/10 01:39:54;;;;;;;13.50;2.80;;;14.20;99.90;;;13.04;95.99;101551.69;5013315;28;20120;-76
2023/06/10 01:42:21;;;;;;;13.52;3.05;;;14.20;99.90;;;13.08;96.07;101554.13;4996065;28;20455;-76
2023/06/10 01:44:47;;;;;;;13.90;3.10;;;14.20;99.90;;;13.14;95.44;101555.66;5011786;28;20486;-76
2023/06/10 01:47:12;;;;;;;14.10;2.97;;;14.20;99.90;;;13.14;94.99;101553.00;5008013;28;20045;-76
2023/06/10 01:49:38;;;;;;;;;;;14.20;99.90;;;13.03;95.50;101544.69;4995347;28;20099;-76
2023/06/10 01:52:05;;;;;;;13.82;3.05;;;14.20;99.90;;;13.00;95.92;101552.75;5000452;28;20432;-77
2023/06/10 01:54:31;;;;;;;18.02;3.10;;;14.20;99.90;;;13.02;95.61;101545.59;5010611;28;20040;-77
2023/06/10 01:56:56;;;;;;;19.45;3.05;;;14.20;99.90;;;13.06;95.79;101544.56;4998819;28;20677;-79
2023/06/10 01:59:22;;;;;;;12.70;2.35;;;14.20;99.90;;;13.05;95.77;101542.84;4995175;28;20044;-76
2023/06/10 02:01:48;;;;;;;;;;;14.20;99.90;;;12.97;96.35;101550.25;5008795;28;20959;-76
2023/06/10 02:04:14;;;;;;;11.65;2.90;;;14.20;99.90;;;12.97;96.13;101555.53;5015849;28;19919;-78
2023/06/10 02:06:40;;;;;;;26.08;3.92;;;14.20;99.90;;;13.01;96.43;101550.03;4993283;28;20057;-76
2023/06/10 02:09:06;;;;;;;17.13;3.20;;;14.20;99.90;;;13.03;96.11;101555.28;4993905;28;20038;-76
2023/06/10 02:11:31;;;;;;;;;;;14.20;99.90;;;12.93;96.07;101547.72;5011223;28;20026;-76
2023/06/10 02:13:57;;;;;;;17.67;3.85;;;14.10;99.90;;;13.01;96.66;101554.47;5012425;28;19917;-78
2023/06/10 02:16:23;;;;;;;14.60;3.17;;;14.10;99.90;;;12.99;96.35;101551.03;5013962;28;20048;-78
2023/06/10 02:18:49;;;;;;;12.85;2.80;;;14.10;99.90;;;12.98;96.62;101539.63;5001787;28;20022;-79
2023/06/10 02:21:15;;;;;;;13.80;3.00;;;14.20;99.90;;;13.03;96.31;101547.34;5001264;28;20509;-76
2023/06/10 02:23:41;;;;;;;21.27;3.40;;;14.20;99.90;;;13.06;96.05;101545.41;4982963;28;20045;-76
2023/06/10 02:26:06;;;;;;;;;;;14.20;99.90;;;13.02;96.12;101545.59;5009437;28;20499;-76
2023/06/10 02:28:32;;;;;;;17.15;3.78;;;14.20;99.90;;;13.06;96.00;101542.75;5012521;28;19928;-78
2023/06/10 02:30:59;;;;;;;18.88;2.95;;;14.20;99.90;;;13.01;95.97;101550.03;5011104;28;20664;-77
2023/06/10 02:33:24;;;;;;;19.00;3.53;;;14.20;99.90;;;13.03;96.60;101555.28;5009829;28;20075;-75
2023/06/10 02:35:50;;;;;;;12.57;3.10;;;14.20;99.90;;;13.06;96.56;101549.84;5011021;28;20087;-75
2023/06/10 02:38:16;;;;;;;;;;;14.20;99.90;;;13.01;96.50;101555.34;5010202;28;20037;-76
2023/06/10 02:40:42;;;;;;;17.92;3.30;;;14.30;99.90;;;13.06;96.31;101555.13;4993396;28;19921;-76
2023/06/10 02:43:09;;;;;;;16.88;3.22;;;14.20;99.90;;;13.09;96.57;101544.44;4994234;28;20116;-76
2023/06/10 02:45:35;;;;;;;15.43;3.58;;;14.20;99.90;;;13.12;96.25;101553.06;5009633;28;20073;-76
2023/06/10 02:48:01;;;;;;;19.08;3.25;;;14.30;99.90;;;13.19;96.04;101555.44;4995293;28;20049;-77
2023/06/10 02:50:27;;;;;;;19.33;3.95;;;14.30;99.90;;;13.15;96.15;101552.06;5013359;28;20481;-76
2023/06/10 02:52:53;;;;;;;17.33;3.65;;;14.30;99.90;;;13.12;96.63;101557.50;5008887;28;20041;-77
2023/06/10 02:55:18;;;;;;;;;;;14.30;99.90;;;13.12;96.17;101555.72;5019378;28;20410;-78
2023/06/10 02:57:44;;;;;;;12.50;3.42;;;14.20;99.90;;;13.12;96.64;101557.50;4998872;28;19925;-78
2023/06/10 03:00:13;;;;;;;;;;;14.30;99.90;;;13.11;97.24;101561.94;5000789;28;20040;-79
2023/06/10 03:02:40;;;;;;;14.60;3.45;;;14.30;99.90;;;13.11;97.03;101564.59;5002704;28;19913;-78
2023/06/10 03:05:09;;;;;;;13.15;2.22;;;14.30;99.90;;;13.16;96.80;101567.03;5001287;28;20031;-77
2023/06/10 03:07:37;;;;;;;17.48;3.33;;;14.30;99.90;;;13.16;97.03;101567.03;5014574;28;20063;-77
2023/06/10 03:10:03;;;;;;;26.33;4.57;;;14.40;99.90;;;13.26;96.65;101565.69;5016933;28;20033;-77
2023/06/10 03:12:29;;;;;;;16.73;3.70;;;14.40;99.90;;;13.29;96.18;101560.28;5016205;28;20037;-78
2023/06/10 03:14:55;;;;;;;14.73;3.35;;;14.40;99.90;;;13.38;95.61;101560.81;5024839;28;20034;-79
2023/06/10 03:17:21;;;;;;;;;;;14.40;99.90;;;13.33;95.78;101551.28;5019700;28;20490;-78
2023/06/10 03:19:46;;;;;;;20.70;3.53;;;14.50;99.90;;;13.41;95.49;101558.91;4997804;28;20623;-76
2023/06/10 03:22:16;;;;;;;11.40;3.28;;;14.50;99.90;;;13.39;95.09;101559.88;5004637;28;20037;-78
2023/06/10 03:24:43;;;;;;;19.98;4.10;;;14.50;99.90;;;13.43;95.48;101564.94;5005527;28;20080;-78
2023/06/10 03:27:12;;;;;;;14.73;3.13;;;14.50;99.90;;;13.56;94.61;101565.25;5013424;28;20048;-79
2023/06/10 03:29:39;;;;;;;19.73;3.80;;;14.60;99.90;;;13.60;94.26;101569.47;5017959;28;20022;-77
2023/06/10 03:32:05;;;;;;;16.08;3.63;;;14.60;99.90;;;13.62;94.26;101572.91;5014982;28;20071;-78
2023/06/10 03:34:31;;;;;;;17.00;4.03;;;14.70;99.90;;;13.73;93.69;101573.28;4999799;28;20037;-78
2023/06/10 03:36:58;;;;;;;14.93;3.40;;;14.70;99.90;;;13.74;93.31;101582.09;5018045;28;20065;-78
2023/06/10 03:39:24;;;;;;;14.07;3.47;;;14.80;99.90;;;13.76;93.59;101574.94;5019239;28;20081;-78
2023/06/10 03:41:50;;;;;;;14.90;3.72;;;14.80;99.90;;;13.78;93.38;101566.91;5015398;28;20043;-77
2023/06/10 03:44:16;;;;;;;24.38;4.30;;;14.80;99.90;;;13.82;93.17;101573.78;4994108;28;20109;-78
2023/06/10 03:46:42;;;;;;;12.25;2.97;;;14.90;99.90;;;13.80;92.68;101570.34;4998418;28;20045;-77
2023/06/10 03:49:09;;;;;;;17.58;3.97;;;14.90;99.90;;;13.93;92.49;101569.72;4999870;28;20791;-78
2023/06/10 03:51:36;;;;;;;16.23;3.38;;;15.30;99.90;;;14.38;91.12;101585.25;5001835;28;20049;-78
2023/06/10 03:54:02;;;;;;;21.85;3.60;;;15.50;99.90;;;14.49;89.26;101581.16;5014383;28;20033;-78
2023/06/10 03:56:28;;;;;;;15.77;4.07;;;15.70;99.90;;;14.84;87.85;101596.22;5015049;28;20109;-78
2023/06/10 03:58:55;;;;;;;19.52;4.13;;;15.80;99.90;;;14.85;86.89;101582.06;5016422;28;20041;-78
2023/06/10 04:01:23;;;;;;;17.33;3.67;;;15.80;99.90;;;14.89;86.14;101584.47;5015276;28;20040;-78
2023/06/10 04:03:51;;;;;;;17.30;3.40;;;15.90;99.90;;;14.89;85.82;101583.63;5025416;28;20041;-77
2023/06/10 04:06:17;;;;;;;15.52;3.88;;;15.70;99.90;;;14.64;86.52;101591.94;5017850;28;20042;-78
2023/06/10 04:08:43;;;;;;;14.82;3.65;;;15.70;99.90;;;14.62;87.31;101592.03;4999951;28;20068;-78
2023/06/10 04:11:09;;;;;;;17.27;3.92;;;15.70;99.90;;;14.68;87.00;101589.06;5012777;28;20450;-78
2023/06/10 04:13:36;;;;;;;18.85;4.30;;;15.60;99.90;;;14.72;86.78;101590.63;5017666;28;20026;-78
2023/06/10 04:16:03;;;;;;;16.20;4.13;;;15.70;99.90;;;14.75;86.79;101590.47;5015606;28;20189;-78
2023/06/10 04:18:29;;;;;;;15.43;3.67;;;15.70;99.90;;;14.84;86.11;101583.84;5029655;28;20060;-78
2023/06/10 04:20:55;;;;;;;19.33;3.35;;;15.70;99.90;;;14.83;86.04;101590.09;5014561;28;20026;-78
2023/06/10 04:23:21;;;;;;;16.67;4.00;;;15.80;99.90;;;14.96;85.90;101585.88;5005898;28;20099;-78
2023/06/10 04:25:49;;;;;;;16.00;3.90;;;16.00;99.90;;;15.44;84.53;101593.13;5013725;28;20525;-79
2023/06/10 04:28:15;;;;;;;20.58;4.43;;;16.80;99.90;;;16.86;80.55;101600.28;5015793;28;20041;-77
2023/06/10 04:30:41;;;;;;;14.45;4.03;;;17.70;99.90;;;17.83;75.51;101608.56;5014701;28;20129;-78
2023/06/10 04:33:09;;;;;;;13.63;3.33;;;18.70;99.90;;;19.01;71.09;101608.00;5013008;28;20413;-78
2023/06/10 04:35:34;;;;;;;14.40;3.70;;;19.60;99.90;;;20.06;67.42;101606.88;4999464;28;20108;-78
2023/06/10 04:38:02;;;;;;;20.75;4.13;;;20.70;99.90;;;21.45;63.31;101613.41;5015951;28;20074;-78
2023/06/10 04:40:28;;;;;;;20.48;4.38;;;21.50;99.90;;;21.99;60.23;101617.16;5011980;28;20041;-79
2023/06/10 04:42:54;;;;;;;16.10;3.83;;;21.70;99.90;;;21.54;60.79;101616.34;5014298;28;20576;-78
2023/06/10 04:45:20;;;;;;;17.42;3.97;;;21.70;99.90;;;21.42;60.80;101618.13;5015918;28;20030;-78
2023/06/10 04:47:46;;;;;;;18.80;4.00;;;22.20;99.90;;;22.44;58.67;101621.56;5005977;28;20077;-77
2023/06/10 04:50:11;;;;;;;;;;;22.40;99.90;;;23.20;56.33;101630.41;5015993;28;20098;-78
2023/06/10 04:52:37;;;;;;;14.52;4.15;;;22.80;99.90;;;23.23;55.77;101634.66;5014726;28;19921;-78
2023/06/10 04:55:04;;;;;;;;;;;22.90;99.90;;;24.00;53.24;101630.66;5015903;28;20478;-78
2023/06/10 04:57:29;;;;;;;18.33;4.00;;;23.70;99.90;;;24.40;53.45;101635.97;4997187;28;20000;-79
2023/06/10 04:59:55;;;;;;;;;;;24.10;99.90;;;25.23;51.59;101649.06;4998598;28;20029;-78
2023/06/10 05:02:23;;;;;;;16.65;3.95;;;24.50;99.20;;;25.44;51.03;101654.25;5017137;28;19963;-78
2023/06/10 05:04:50;;;;;;;13.20;3.85;;;25.30;99.50;;;26.67;49.16;101678.22;5000927;28;20039;-78
2023/06/10 05:07:16;;;;;;;14.20;3.80;;;25.90;97.40;;;27.17;47.75;101671.41;5019006;28;20068;-78
2023/06/10 05:09:41;;;;;;;17.17;4.30;;;26.50;96.60;;;27.89;45.91;101676.66;4993025;28;20030;-77
2023/06/10 05:12:08;;;;;;;21.00;3.80;;;26.50;95.30;;;27.13;46.32;101688.97;5019687;28;20033;-78
2023/06/10 05:14:34;;;;;;;16.25;3.88;;;25.70;95.30;;;25.25;49.59;101657.84;5006693;28;20528;-78
2023/06/10 05:17:00;;;;;;;14.00;3.60;;;25.00;96.00;;;24.24;50.89;101652.66;5020662;28;20038;-78
2023/06/10 05:19:27;;;;;;;;;;;24.80;97.30;;;24.19;50.65;101651.38;5006215;28;20457;-78
2023/06/10 05:21:52;;;;;;;14.68;3.65;;;23.90;98.20;;;23.11;53.40;101650.84;5002290;28;20236;-77
2023/06/10 05:24:18;;;;;;;;;;;23.90;99.40;;;22.35;54.50;101647.34;5020037;28;20061;-78
2023/06/10 05:26:44;;;;;;;16.50;4.00;;;23.10;99.60;;;23.26;54.30;101667.50;5020195;28;19979;-78
2023/06/10 05:29:10;;;;;;;;;;;23.20;99.90;;;24.19;51.74;101662.13;5005534;28;20168;-79
2023/06/10 05:31:36;;;;;;;16.58;4.07;;;23.50;99.10;;;24.86;51.04;101672.19;5017046;28;19920;-77
2023/06/10 05:34:02;;;;;;;11.73;3.72;;;24.00;98.70;;;25.75;49.25;101681.84;5010316;28;20402;-78
2023/06/10 05:36:27;;;;;;;;;;;24.20;99.80;;;26.34;47.50;101694.06;5008434;28;20033;-77
2023/06/10 05:38:53;;;;;;;17.42;3.97;;;25.20;96.90;;;26.66;46.93;101700.84;5013642;28;20377;-78
2023/06/10 05:41:20;;;;;;;12.25;3.25;;;25.40;96.60;;;26.66;46.42;101708.13;5014320;28;20025;-78
2023/06/10 05:43:46;;;;;;;16.80;4.43;;;25.80;96.00;;;27.29;45.65;101709.88;5010834;28;20620;-78
2023/06/10 05:46:12;;;;;;;11.57;4.25;;;26.00;95.70;;;27.76;44.75;101723.91;5005775;28;20031;-78
2023/06/10 05:48:38;;;;;;;11.60;5.10;;;26.40;95.00;;;27.89;43.75;101712.66;5003739;28;20422;-77
2023/06/10 05:51:04;;;;;;;17.88;5.05;;;26.70;94.70;;;28.30;43.47;101739.91;5012741;28;20034;-78
2023/06/10 05:53:29;;;;;;;14.43;6.25;;;26.70;93.70;;;27.09;44.71;101712.75;5012331;28;20044;-78
2023/06/10 05:55:57;;;;;;;;;;;26.90;94.10;;;27.05;43.89;101711.34;4997347;28;20026;-77
2023/06/10 05:58:24;;;;;;;11.18;5.70;;;26.70;94.20;;;26.89;45.41;101717.47;5035606;28;19926;-78
2023/06/10 06:00:50;;;;;;;18.17;6.00;;;26.80;93.80;;;27.44;44.20;101729.09;5015081;28;20037;-78
2023/06/10 06:03:17;;;;;;;23.25;7.03;;;27.40;93.70;;;28.83;42.66;101737.88;5013326;28;20026;-78
2023/06/10 06:05:43;;;;;;;11.68;8.25;;;28.00;92.40;;;29.21;41.60;101746.44;4988661;28;20498;-78
2023/06/10 06:08:10;;;;;;;16.67;7.90;;;28.70;92.10;;;30.10;40.36;101751.88;5012792;28;20037;-78
2023/06/10 06:10:36;;;;;;;21.38;8.68;;;28.40;91.10;;;28.22;42.20;101719.06;5011667;28;20037;-77
2023/06/10 06:13:02;;;;;;;16.33;10.55;;;28.10;91.70;;;28.54;42.68;101727.50;5007578;28;20029;-78
2023/06/10 06:15:28;;;;;;;20.63;9.77;;;28.40;91.70;;;29.35;40.93;101767.44;4994943;28;20371;-78
2023/06/10 06:17:55;;;;;;;20.10;10.07;;;28.00;90.90;;;27.96;42.45;101732.66;4987545;28;20089;-78
2023/06/10 06:20:22;;;;;;;16.17;10.50;;;28.10;92.10;;;28.56;42.22;101744.44;5004838;28;20124;-78
2023/06/10 06:22:47;;;;;;;16.35;10.45;;;28.20;92.40;;;28.88;41.30;101740.09;4995889;28;20376;-79
2023/06/10 06:25:14;;;;;;;16.58;10.82;;;28.40;90.70;;;28.81;41.47;101748.03;5016926;28;20044;-78
2023/06/10 06:27:39;;;;;;;25.45;11.93;;;28.90;90.70;;;29.99;40.02;101772.13;5000197;28;20038;-79
2023/06/10 06:30:06;;;;;;;16.08;8.05;;;28.90;90.00;;;28.87;40.96;101763.63;5014020;28;20107;-78
2023/06/10 06:32:32;;;;;;;12.80;6.63;;;27.80;90.10;;;26.57;43.24;101739.59;5005155;28;20034;-78
2023/06/10 06:34:58;;;;;;;22.00;13.18;;;27.50;90.90;;;27.33;43.58;101751.84;5013042;28;20099;-77
2023/06/10 06:37:25;;;;;;;20.98;11.23;;;27.60;90.60;;;27.55;43.05;101748.59;5015132;28;20038;-77
2023/06/10 06:39:54;;;;;;;22.95;11.93;;;28.10;90.90;;;28.64;41.19;101752.59;5012837;28;20038;-78
2023/06/10 06:42:20;;;;;;;18.85;10.27;;;27.70;90.10;;;27.37;42.77;101747.81;4997434;28;20026;-79
2023/06/10 06:44:47;;;;;;;13.35;8.18;;;27.50;90.50;;;27.03;43.49;101748.50;4995948;28;20420;-78
2023/06/10 06:47:13;;;;;;;20.25;12.52;;;27.40;90.80;;;27.48;42.77;101752.97;4993459;28;20034;-78
2023/06/10 06:49:39;;;;;;;22.15;11.50;;;28.20;90.80;;;28.95;40.84;101768.25;5015655;28;20045;-77
2023/06/10 06:52:05;;;;;;;19.20;12.15;;;28.40;90.20;;;28.72;41.07;101768.00;5013956;28;20037;-78
2023/06/10 06:54:32;;;;;;;14.57;10.45;;;28.70;90.00;;;28.89;40.97;101774.31;5009689;28;20072;-78
2023/06/10 06:56:57;;;;;;;12.73;8.45;;;29.00;89.00;;;29.01;40.11;101773.00;5012248;28;20045;-78
2023/06/10 06:59:25;;;;;;;19.60;11.95;;;29.20;89.20;;;29.26;40.00;101781.16;5012179;28;20666;-79
2023/06/10 07:01:51;;;;;;;19.42;12.30;;;28.90;88.90;;;28.74;41.27;101768.69;5012704;28;20030;-79
2023/06/10 07:04:19;;;;;;;18.98;11.35;;;28.50;87.70;;;27.86;41.74;101761.69;5014608;28;20045;-78
2023/06/10 07:06:45;;;;;;;20.55;11.32;;;28.30;88.60;;;27.39;42.68;101762.03;4997317;28;20033;-78
2023/06/10 07:09:11;;;;;;;18.98;10.25;;;28.20;89.10;;;27.00;43.14;101752.38;5012984;28;20064;-78
2023/06/10 07:11:37;;;;;;;17.70;10.52;;;27.80;90.00;;;27.42;42.85;101767.09;5015592;28;20125;-78
2023/06/10 07:14:02;;;;;;;24.63;10.68;;;27.80;89.80;;;27.20;43.24;101760.31;4998940;28;20022;-78
2023/06/10 07:16:28;;;;;;;18.25;10.77;;;27.90;90.30;;;27.23;43.27;101754.63;4987013;28;20390;-77
2023/06/10 07:18:55;;;;;;;18.13;10.98;;;28.00;90.50;;;28.05;41.96;101770.59;5007503;28;20034;-78
2023/06/10 07:21:23;;;;;;;18.60;11.20;;;28.30;89.80;;;28.51;41.32;101784.72;5008267;28;20053;-78
2023/06/10 07:23:49;;;;;;;18.00;9.23;;;28.50;88.30;;;28.23;40.52;101788.47;5001319;28;20033;-79
2023/06/10 07:26:15;;;;;;;15.60;8.98;;;28.50;87.70;;;27.79;41.00;101779.53;4987147;28;20034;-79
2023/06/10 07:28:41;;;;;;;15.70;9.88;;;28.10;89.80;;;27.67;42.45;101775.41;4978460;28;20508;-80
2023/06/10 07:31:08;;;;;;;17.23;9.73;;;28.70;90.20;;;28.84;40.51;101796.50;4989023;28;20052;-80
2023/06/10 07:33:36;;;;;;;19.27;9.32;;;28.30;89.50;;;27.61;42.46;101776.91;4992851;28;21095;-80
2023/06/10 07:36:03;;;;;;;22.38;10.68;;;28.50;89.90;;;28.48;41.51;101783.19;5010745;28;20511;-78
2023/06/10 07:38:28;;;;;;;16.48;10.20;;;28.90;88.80;;;28.95;40.70;101789.91;4994728;28;20620;-79
2023/06/10 07:40:54;;;;;;;18.45;10.32;;;28.80;88.60;;;28.58;41.35;101786.59;5011019;28;20171;-78
2023/06/10 07:43:20;;;;;;;16.85;9.05;;;29.10;89.20;;;29.26;40.61;101794.72;5010314;28;20033;-79
2023/06/10 07:45:46;;;;;;;17.90;9.60;;;29.10;88.10;;;28.89;41.23;101786.00;5010736;28;20086;-78
2023/06/10 07:48:11;;;;;;;14.18;8.40;;;29.30;88.30;;;28.83;40.66;101790.25;5010359;28;20038;-79
2023/06/10 07:50:37;;;;;;;21.58;11.25;;;28.90;87.30;;;28.55;41.35;101786.06;4975524;28;20682;-79
2023/06/10 07:53:03;;;;;;;20.60;8.45;;;29.00;88.90;;;28.51;41.32;101779.28;5010356;28;20045;-80
2023/06/10 07:55:29;;;;;;;22.05;10.55;;;28.90;88.70;;;28.74;41.01;101793.94;5009317;28;20048;-79
2023/06/10 07:57:55;;;;;;;17.08;10.93;;;28.70;88.90;;;28.52;41.11;101783.72;5009373;28;20026;-78
2023/06/10 08:00:21;;;;;;;15.38;11.95;;;28.30;89.20;;;27.84;42.51;101779.94;5015528;28;20041;-78
2023/06/10 08:02:47;;;;;;;16.98;8.40;;;28.60;89.30;;;28.29;41.57;101786.97;5011818;28;20041;-80
2023/06/10 08:05:13;;;;;;;14.15;9.55;;;28.50;89.40;;;28.24;41.72;101781.19;5013571;28;20061;-79
2023/06/10 08:07:40;;;;;;;19.70;10.55;;;28.30;89.80;;;28.13;42.20;101784.19;4996798;28;20064;-81
2023/06/10 08:10:07;;;;;;;20.70;9.25;;;27.70;90.60;;;26.99;44.20;101764.16;4987807;28;20040;-78
2023/06/10 08:12:34;;;;;;;13.77;10.65;;;27.50;90.50;;;27.19;43.90;101766.72;5004393;28;20116;-83
2023/06/10 08:15:01;;;;;;;16.75;10.73;;;27.40;91.00;;;27.37;44.08;101769.44;4995539;28;20045;-81
2023/06/10 08:17:27;;;;;;;15.18;10.32;;;27.00;90.80;;;26.44;45.32;101757.97;5004047;28;20036;-79
2023/06/10 08:19:53;;;;;;;15.77;7.43;;;26.70;91.20;;;25.99;46.16;101749.63;5029453;28;20029;-79
2023/06/10 08:22:26;;;;;;;15.43;7.40;;;26.40;92.10;;;25.79;46.87;101748.00;5005823;28;20040;-82
2023/06/10 08:24:52;;;;;;;13.23;5.72;;;26.10;92.20;;;25.51;46.88;101745.22;4972222;28;20113;-81
2023/06/10 08:27:18;;;;;;;14.23;6.00;;;26.00;92.60;;;25.19;47.35;101748.19;4987670;28;20116;-79
2023/06/10 08:29:44;;;;;;;16.10;7.60;;;25.40;92.70;;;24.60;49.11;101728.44;4944120;28;20041;-79
2023/06/10 08:32:10;;;;;;;15.00;7.50;;;25.40;93.20;;;24.45;49.30;101730.63;4995455;28;20046;-81
2023/06/10 08:34:40;;;;;;;15.23;5.97;;;25.00;93.60;;;23.95;50.15;101722.50;4992510;28;20055;-80
2023/06/10 08:37:06;;;;;;;14.27;6.15;;;25.00;94.30;;;24.56;50.04;101730.53;4981164;28;20033;-79
2023/06/10 08:39:32;;;;;;;15.80;6.05;;;25.10;93.90;;;24.44;49.42;101738.84;4997461;28;20037;-79
2023/06/10 08:42:39;;;;;;;16.63;6.25;;;24.90;94.50;;;24.03;50.38;101727.22;5005143;28;20083;-80
2023/06/10 08:45:10;;;;;;;13.77;6.57;;;24.80;94.50;;;23.94;50.63;101732.41;5027466;28;20046;-79
2023/06/10 08:47:41;;;;;;;13.35;6.70;;;24.90;94.80;;;24.42;50.87;101736.28;4978205;28;20556;-80
2023/06/10 08:50:08;;;;;;;15.45;6.63;;;25.00;94.30;;;24.22;50.56;101742.59;4976767;28;20521;-81
2023/06/10 08:52:40;;;;;;;10.57;5.90;;;24.80;94.80;;;24.11;50.98;101725.56;4994065;28;20099;-79
2023/06/10 08:55:19;;;;;;;11.85;7.30;;;24.70;95.00;;;23.93;51.74;101722.66;4973708;28;20033;-80
2023/06/10 08:57:48;;;;;;;12.50;6.55;;;24.60;95.00;;;23.62;52.07;101727.13;4992712;28;20124;-78
2023/06/10 09:00:17;;;;;;;14.95;6.03;;;24.60;95.30;;;23.53;52.58;101720.69;4989861;28;20043;-80
2023/06/10 09:02:44;;;;;;;15.73;6.50;;;24.60;95.60;;;23.81;52.29;101737.19;4985496;28;20209;-81
2023/06/10 09:05:10;;;;;;;10.38;6.60;;;24.40;95.80;;;23.56;53.00;101722.25;5007728;28;20041;-80
2023/06/10 09:07:37;;;;;;;15.07;7.57;;;24.40;95.80;;;23.82;52.34;101728.09;4989529;28;20141;-79
2023/06/10 09:10:06;;;;;;;12.50;6.78;;;24.30;95.30;;;23.40;52.86;101727.28;5015411;28;20032;-79
2023/06/10 09:12:35;;;;;;;19.95;7.05;;;24.30;95.90;;;23.59;52.81;101745.38;4990450;28;20043;-80
2023/06/10 09:15:04;;;;;;;14.38;6.40;;;23.90;96.00;;;22.92;53.87;101715.13;5003316;28;20034;-80
2023/06/10 09:17:40;;;;;;;15.40;7.18;;;23.90;96.30;;;23.04;53.93;101716.81;4990015;28;20033;-81
2023/06/10 09:20:08;;;;;;;17.55;7.28;;;24.10;96.80;;;23.52;53.24;101728.88;4985577;28;20094;-78
2023/06/10 09:22:37;;;;;;;20.75;6.45;;;24.30;96.60;;;23.68;52.57;101736.50;4975443;28;20056;-78
2023/06/10 09:25:08;;;;;;;14.10;6.95;;;24.30;96.50;;;23.71;53.11;101736.22;4978853;28;20037;-80
2023/06/10 09:27:55;;;;;;;11.73;5.55;;;24.40;96.10;;;23.68;52.28;101739.19;5000621;28;20045;-79
2023/06/10 09:30:33;;;;;;;22.58;7.22;;;24.40;96.20;;;23.50;53.24;101729.03;5003228;28;20030;-79
2023/06/10 09:33:15;;;;;;;16.92;6.50;;;24.30;96.10;;;23.20;53.73;101720.91;5008339;28;20034;-82
2023/06/10 09:35:50;;;;;;;20.80;6.68;;;24.30;96.90;;;23.54;53.22;101730.50;4992336;28;20040;-81
2023/06/10 09:38:31;;;;;;;11.60;5.45;;;24.40;96.20;;;23.44;52.92;101729.56;5015415;28;20048;-78
2023/06/10 09:41:04;;;;;;;15.48;7.57;;;24.30;96.50;;;23.63;53.45;101723.47;4988207;28;20079;-80
2023/06/10 09:43:59;;;;;;;12.60;7.47;;;24.50;96.40;;;23.97;52.20;101728.59;5022189;28;20375;-79
2023/06/10 09:46:34;;;;;;;17.40;6.28;;;24.60;95.70;;;24.09;52.33;101732.91;4991134;28;20115;-80
2023/06/10 09:49:06;;;;;;;12.55;6.63;;;24.80;95.90;;;24.44;52.23;101728.06;5001604;28;20046;-79
2023/06/10 09:51:32;;;;;;;15.18;7.40;;;24.60;96.00;;;23.65;53.45;101718.81;5015675;28;20113;-82
2023/06/10 09:54:07;;;;;;;18.35;7.47;;;24.50;96.20;;;23.66;53.98;101722.34;5006305;28;20037;-79
2023/06/10 09:56:42;;;;;;;15.18;8.00;;;24.50;96.20;;;23.74;53.84;101725.22;5013692;28;20037;-78
2023/06/10 09:59:11;;;;;;;16.83;6.25;;;24.60;96.40;;;24.07;53.49;101725.97;5014482;28;20501;-79
2023/06/10 10:01:37;;;;;;;9.63;4.85;;;24.70;96.40;;;23.95;53.07;101718.00;5001775;28;20038;-78
2023/06/10 10:04:08;;;;;;;14.88;7.10;;;24.70;96.40;;;24.12;53.25;101724.56;5005013;28;20037;-79
2023/06/10 10:06:36;;;;;;;16.85;7.40;;;24.80;96.40;;;24.20;53.10;101726.59;5014238;28;20032;-78
2023/06/10 10:09:03;;;;;;;16.65;6.47;;;25.00;96.20;;;24.41;52.57;101726.50;5009173;28;20053;-79
2023/06/10 10:11:34;;;;;;;13.43;7.28;;;25.00;96.00;;;24.28;53.26;101729.44;5015806;28;20038;-81
2023/06/10 10:14:06;;;;;;;16.33;7.05;;;25.00;96.90;;;24.54;53.17;101739.75;5004058;28;20092;-80